Hewlett Harbor, New York
Current Conditions -  °F | °C
As of 3:51 AM on Sunday 26 Oct 2014 (Local Time) from KJFK Reporting Station
Scattered Clouds Scattered Clouds  
Wind Chill: 55°   Ceiling: Unl
Heat Index: 55°   Visibility: 10mi
Dew Point: 47°   Wind: 8mph
Humidity: 74%   Direction: 250°WSW
Pressure: 29.56"   Gusts: NA
Location:  40.637°N, 73.6912°W
Report Text: KJFK 260751Z 25007KT 10SM FEW060 SCT110 13/08 A2956 RMK AO2 SLP008 T01280083
Loading
Personal Weather Stations






























Interactive Weather Map
Tropical Storm Tracking
New forecast layout! Learn more

10-Day Weather Forecast

Advertisements
Track Severe Weather on mobile